sensor_id;sensor_type;location;lat;lon;timestamp;pressure;altitude;pressure_sealevel;temperature;humidity
63607;BME280;51327;52.466;-1.938;2022-09-09T00:02:27;98589.22;;;10.84;100.00
63607;BME280;51327;52.466;-1.938;2022-09-09T00:05:22;98586.13;;;10.79;100.00
63607;BME280;51327;52.466;-1.938;2022-09-09T00:08:15;98586.34;;;10.76;100.00
63607;BME280;51327;52.466;-1.938;2022-09-09T00:10:57;98585.66;;;10.74;100.00
63607;BME280;51327;52.466;-1.938;2022-09-09T00:13:46;98590.13;;;10.74;100.00
63607;BME280;51327;52.466;-1.938;2022-09-09T00:16:38;98589.03;;;10.76;100.00
63607;BME280;51327;52.466;-1.938;2022-09-09T00:19:28;98600.31;;;10.80;100.00
63607;BME280;51327;52.466;-1.938;2022-09-09T00:22:38;98600.63;;;10.86;100.00
63607;BME280;51327;52.466;-1.938;2022-09-09T00:25:19;98594.91;;;10.91;100.00
63607;BME280;51327;52.466;-1.938;2022-09-09T00:27:53;98592.56;;;10.98;100.00
63607;BME280;51327;52.466;-1.938;2022-09-09T00:30:29;98595.81;;;11.01;100.00
63607;BME280;51327;52.466;-1.938;2022-09-09T00:33:01;98597.38;;;11.04;100.00
63607;BME280;51327;52.466;-1.938;2022-09-09T00:35:35;98592.88;;;11.04;100.00
63607;BME280;51327;52.466;-1.938;2022-09-09T00:38:14;98600.03;;;11.04;100.00
63607;BME280;51327;52.466;-1.938;2022-09-09T00:40:55;98597.78;;;10.99;100.00
63607;BME280;51327;52.466;-1.938;2022-09-09T00:43:36;98595.50;;;10.95;100.00
63607;BME280;51327;52.466;-1.938;2022-09-09T00:48:49;98591.78;;;10.86;100.00
63607;BME280;51327;52.466;-1.938;2022-09-09T00:51:22;98596.53;;;10.82;100.00
63607;BME280;51327;52.466;-1.938;2022-09-09T00:54:00;98593.97;;;10.81;100.00
63607;BME280;51327;52.466;-1.938;2022-09-09T00:56:33;98589.75;;;10.78;100.00
63607;BME280;51327;52.466;-1.938;2022-09-09T01:01:36;98590.00;;;10.75;100.00
63607;BME280;51327;52.466;-1.938;2022-09-09T01:04:02;98600.69;;;10.75;100.00
63607;BME280;51327;52.466;-1.938;2022-09-09T01:06:36;98601.53;;;10.76;100.00
63607;BME280;51327;52.466;-1.938;2022-09-09T01:09:18;98600.31;;;10.80;100.00
63607;BME280;51327;52.466;-1.938;2022-09-09T01:11:55;98592.03;;;10.83;100.00
63607;BME280;51327;52.466;-1.938;2022-09-09T01:17:04;98595.41;;;10.85;100.00
63607;BME280;51327;52.466;-1.938;2022-09-09T01:25:11;98590.06;;;10.85;100.00
63607;BME280;51327;52.466;-1.938;2022-09-09T01:27:32;98596.28;;;10.85;100.00
63607;BME280;51327;52.466;-1.938;2022-09-09T01:30:23;98593.84;;;10.82;100.00
63607;BME280;51327;52.466;-1.938;2022-09-09T01:32:54;98588.63;;;10.81;100.00
63607;BME280;51327;52.466;-1.938;2022-09-09T01:38:26;98589.91;;;10.77;100.00
63607;BME280;51327;52.466;-1.938;2022-09-09T01:41:09;98587.22;;;10.77;100.00
63607;BME280;51327;52.466;-1.938;2022-09-09T01:43:55;98593.41;;;10.77;100.00
63607;BME280;51327;52.466;-1.938;2022-09-09T01:46:36;98592.56;;;10.77;100.00
63607;BME280;51327;52.466;-1.938;2022-09-09T01:49:06;98601.28;;;10.79;100.00
63607;BME280;51327;52.466;-1.938;2022-09-09T01:51:44;98601.97;;;10.81;100.00
63607;BME280;51327;52.466;-1.938;2022-09-09T01:54:15;98602.69;;;10.83;100.00
63607;BME280;51327;52.466;-1.938;2022-09-09T01:56:47;98606.69;;;10.89;100.00
63607;BME280;51327;52.466;-1.938;2022-09-09T02:02:02;98603.34;;;10.96;100.00
63607;BME280;51327;52.466;-1.938;2022-09-09T02:04:56;98610.59;;;11.05;100.00
63607;BME280;51327;52.466;-1.938;2022-09-09T02:10:31;98609.25;;;11.21;100.00
63607;BME280;51327;52.466;-1.938;2022-09-09T02:13:24;98599.75;;;11.28;100.00
63607;BME280;51327;52.466;-1.938;2022-09-09T02:16:12;98609.78;;;11.36;100.00
63607;BME280;51327;52.466;-1.938;2022-09-09T02:21:37;98612.22;;;11.48;100.00
63607;BME280;51327;52.466;-1.938;2022-09-09T02:24:13;98617.03;;;11.55;100.00
63607;BME280;51327;52.466;-1.938;2022-09-09T02:26:49;98582.75;;;11.29;100.00
63607;BME280;51327;52.466;-1.938;2022-09-09T02:29:38;98621.56;;;11.64;100.00
63607;BME280;51327;52.466;-1.938;2022-09-09T02:32:12;98620.75;;;11.73;100.00
63607;BME280;51327;52.466;-1.938;2022-09-09T02:34:45;98619.09;;;11.82;100.00
63607;BME280;51327;52.466;-1.938;2022-09-09T02:37:27;98628.16;;;11.90;100.00
63607;BME280;51327;52.466;-1.938;2022-09-09T02:39:58;98621.56;;;11.95;100.00
63607;BME280;51327;52.466;-1.938;2022-09-09T02:42:23;98618.72;;;11.96;100.00
63607;BME280;51327;52.466;-1.938;2022-09-09T02:44:49;98627.19;;;12.01;100.00
63607;BME280;51327;52.466;-1.938;2022-09-09T02:55:13;98618.91;;;12.14;100.00
63607;BME280;51327;52.466;-1.938;2022-09-09T02:57:42;98618.63;;;12.17;100.00
63607;BME280;51327;52.466;-1.938;2022-09-09T03:00:12;98628.38;;;12.18;100.00
63607;BME280;51327;52.466;-1.938;2022-09-09T03:02:38;98623.84;;;12.19;100.00
63607;BME280;51327;52.466;-1.938;2022-09-09T03:05:04;98632.59;;;12.21;100.00
63607;BME280;51327;52.466;-1.938;2022-09-09T03:07:32;98625.41;;;12.21;100.00
63607;BME280;51327;52.466;-1.938;2022-09-09T03:10:00;98633.31;;;12.23;100.00
63607;BME280;51327;52.466;-1.938;2022-09-09T03:12:25;98632.19;;;12.25;100.00
63607;BME280;51327;52.466;-1.938;2022-09-09T03:14:51;98632.75;;;12.29;100.00
63607;BME280;51327;52.466;-1.938;2022-09-09T03:17:19;98627.25;;;12.30;100.00
63607;BME280;51327;52.466;-1.938;2022-09-09T03:19:44;98629.50;;;12.35;100.00
63607;BME280;51327;52.466;-1.938;2022-09-09T03:22:10;98638.13;;;12.39;100.00
63607;BME280;51327;52.466;-1.938;2022-09-09T03:24:38;98635.31;;;12.40;100.00
63607;BME280;51327;52.466;-1.938;2022-09-09T03:27:09;98629.66;;;12.43;100.00
63607;BME280;51327;52.466;-1.938;2022-09-09T03:29:34;98625.84;;;12.46;100.00
63607;BME280;51327;52.466;-1.938;2022-09-09T03:32:02;98631.09;;;12.47;100.00
63607;BME280;51327;52.466;-1.938;2022-09-09T03:34:29;98634.47;;;12.49;100.00
63607;BME280;51327;52.466;-1.938;2022-09-09T03:36:55;98628.94;;;12.51;100.00
63607;BME280;51327;52.466;-1.938;2022-09-09T03:39:20;98631.50;;;12.52;100.00
63607;BME280;51327;52.466;-1.938;2022-09-09T03:41:48;98631.50;;;12.52;100.00
63607;BME280;51327;52.466;-1.938;2022-09-09T03:44:13;98630.53;;;12.53;100.00
63607;BME280;51327;52.466;-1.938;2022-09-09T03:46:39;98631.22;;;12.56;100.00
63607;BME280;51327;52.466;-1.938;2022-09-09T03:49:07;98641.09;;;12.55;100.00
63607;BME280;51327;52.466;-1.938;2022-09-09T03:51:33;98639.94;;;12.58;100.00
63607;BME280;51327;52.466;-1.938;2022-09-09T03:54:02;98644.47;;;12.57;100.00
63607;BME280;51327;52.466;-1.938;2022-09-09T03:56:32;98636.44;;;12.57;100.00
63607;BME280;51327;52.466;-1.938;2022-09-09T03:58:57;98639.09;;;12.57;100.00
63607;BME280;51327;52.466;-1.938;2022-09-09T04:01:23;98640.81;;;12.58;100.00
63607;BME280;51327;52.466;-1.938;2022-09-09T04:03:50;98636.31;;;12.59;100.00
63607;BME280;51327;52.466;-1.938;2022-09-09T04:06:19;98633.75;;;12.57;100.00
63607;BME280;51327;52.466;-1.938;2022-09-09T04:08:48;98639.94;;;12.58;100.00
63607;BME280;51327;52.466;-1.938;2022-09-09T04:11:16;98646.19;;;12.58;100.00
63607;BME280;51327;52.466;-1.938;2022-09-09T04:13:45;98644.34;;;12.59;100.00
63607;BME280;51327;52.466;-1.938;2022-09-09T04:16:12;98643.50;;;12.58;100.00
63607;BME280;51327;52.466;-1.938;2022-09-09T04:18:42;98645.19;;;12.59;100.00
63607;BME280;51327;52.466;-1.938;2022-09-09T04:21:10;98651.25;;;12.61;100.00
63607;BME280;51327;52.466;-1.938;2022-09-09T04:23:37;98647.56;;;12.62;100.00
63607;BME280;51327;52.466;-1.938;2022-09-09T04:26:03;98651.25;;;12.61;100.00
63607;BME280;51327;52.466;-1.938;2022-09-09T04:28:32;98645.59;;;12.64;100.00
63607;BME280;51327;52.466;-1.938;2022-09-09T04:31:04;98654.34;;;12.66;100.00
63607;BME280;51327;52.466;-1.938;2022-09-09T04:33:29;98654.22;;;12.68;100.00
63607;BME280;51327;52.466;-1.938;2022-09-09T04:35:58;98651.41;;;12.69;100.00
63607;BME280;51327;52.466;-1.938;2022-09-09T04:38:24;98660.09;;;12.71;100.00
63607;BME280;51327;52.466;-1.938;2022-09-09T04:40:51;98671.53;;;12.73;100.00
63607;BME280;51327;52.466;-1.938;2022-09-09T04:43:20;98665.03;;;12.76;100.00
63607;BME280;51327;52.466;-1.938;2022-09-09T04:45:47;98671.28;;;12.77;100.00
63607;BME280;51327;52.466;-1.938;2022-09-09T04:48:12;98664.91;;;12.78;100.00
63607;BME280;51327;52.466;-1.938;2022-09-09T04:50:40;98664.78;;;12.79;100.00
63607;BME280;51327;52.466;-1.938;2022-09-09T04:53:08;98666.47;;;12.80;100.00
63607;BME280;51327;52.466;-1.938;2022-09-09T04:55:35;98674.38;;;12.82;100.00
63607;BME280;51327;52.466;-1.938;2022-09-09T04:58:04;98669.84;;;12.82;100.00
63607;BME280;51327;52.466;-1.938;2022-09-09T05:00:30;98669.72;;;12.84;100.00
63607;BME280;51327;52.466;-1.938;2022-09-09T05:02:58;98679.44;;;12.85;100.00
63607;BME280;51327;52.466;-1.938;2022-09-09T05:05:27;98681.13;;;12.86;100.00
63607;BME280;51327;52.466;-1.938;2022-09-09T05:07:53;98677.59;;;12.85;100.00
63607;BME280;51327;52.466;-1.938;2022-09-09T05:10:21;98674.78;;;12.87;100.00
63607;BME280;51327;52.466;-1.938;2022-09-09T05:12:53;98682.81;;;12.87;100.00
63607;BME280;51327;52.466;-1.938;2022-09-09T05:15:19;98679.31;;;12.86;100.00
63607;BME280;51327;52.466;-1.938;2022-09-09T05:17:48;98688.19;;;12.87;100.00
63607;BME280;51327;52.466;-1.938;2022-09-09T05:20:13;98684.66;;;12.86;100.00
63607;BME280;51327;52.466;-1.938;2022-09-09T05:22:38;98693.66;;;12.85;100.00
63607;BME280;51327;52.466;-1.938;2022-09-09T05:25:06;98687.47;;;12.85;100.00
63607;BME280;51327;52.466;-1.938;2022-09-09T05:27:36;98690.97;;;12.85;100.00
63607;BME280;51327;52.466;-1.938;2022-09-09T05:30:01;98698.91;;;12.87;100.00
63607;BME280;51327;52.466;-1.938;2022-09-09T05:32:29;98697.91;;;12.88;100.00
63607;BME280;51327;52.466;-1.938;2022-09-09T05:34:57;98693.41;;;12.88;100.00
63607;BME280;51327;52.466;-1.938;2022-09-09T05:37:24;98697.75;;;12.89;100.00
63607;BME280;51327;52.466;-1.938;2022-09-09T05:39:51;98695.78;;;12.91;100.00
63607;BME280;51327;52.466;-1.938;2022-09-09T05:42:20;98693.09;;;12.91;100.00
63607;BME280;51327;52.466;-1.938;2022-09-09T05:44:45;98696.63;;;12.92;100.00
63607;BME280;51327;52.466;-1.938;2022-09-09T05:47:11;98698.34;;;12.93;100.00
63607;BME280;51327;52.466;-1.938;2022-09-09T05:49:38;98697.50;;;12.92;100.00
63607;BME280;51327;52.466;-1.938;2022-09-09T05:52:06;98703.69;;;12.93;100.00
63607;BME280;51327;52.466;-1.938;2022-09-09T05:54:31;98705.53;;;12.92;100.00
63607;BME280;51327;52.466;-1.938;2022-09-09T05:56:57;98704.53;;;12.93;100.00
63607;BME280;51327;52.466;-1.938;2022-09-09T05:59:25;98712.56;;;12.93;100.00
63607;BME280;51327;52.466;-1.938;2022-09-09T06:01:52;98717.94;;;12.93;100.00
63607;BME280;51327;52.466;-1.938;2022-09-09T06:04:18;98715.25;;;12.93;100.00
63607;BME280;51327;52.466;-1.938;2022-09-09T06:06:47;98712.72;;;12.92;100.00
63607;BME280;51327;52.466;-1.938;2022-09-09T06:09:16;98719.91;;;12.91;100.00
63607;BME280;51327;52.466;-1.938;2022-09-09T06:11:41;98719.91;;;12.91;100.00
63607;BME280;51327;52.466;-1.938;2022-09-09T06:14:07;98723.28;;;12.93;100.00
63607;BME280;51327;52.466;-1.938;2022-09-09T06:16:35;98721.44;;;12.94;100.00
63607;BME280;51327;52.466;-1.938;2022-09-09T06:19:03;98726.81;;;12.94;100.00
63607;BME280;51327;52.466;-1.938;2022-09-09T06:21:30;98729.22;;;12.97;100.00
63607;BME280;51327;52.466;-1.938;2022-09-09T06:23:58;98718.34;;;12.99;100.00
63607;BME280;51327;52.466;-1.938;2022-09-09T06:26:24;98733.28;;;13.01;100.00
63607;BME280;51327;52.466;-1.938;2022-09-09T06:28:51;98731.50;;;13.02;100.00
63607;BME280;51327;52.466;-1.938;2022-09-09T06:31:23;98730.47;;;13.03;100.00
63607;BME280;51327;52.466;-1.938;2022-09-09T06:33:52;98741.06;;;13.04;100.00
63607;BME280;51327;52.466;-1.938;2022-09-09T06:36:21;98734.72;;;13.05;100.00
63607;BME280;51327;52.466;-1.938;2022-09-09T06:38:47;98743.63;;;13.06;100.00
63607;BME280;51327;52.466;-1.938;2022-09-09T06:41:13;98743.47;;;13.07;100.00
63607;BME280;51327;52.466;-1.938;2022-09-09T06:43:41;98752.34;;;13.08;100.00
63607;BME280;51327;52.466;-1.938;2022-09-09T06:46:17;98748.41;;;13.12;100.00
63607;BME280;51327;52.466;-1.938;2022-09-09T06:48:45;98753.63;;;13.13;100.00
63607;BME280;51327;52.466;-1.938;2022-09-09T06:51:18;98756.19;;;13.15;100.00
63607;BME280;51327;52.466;-1.938;2022-09-09T06:53:52;98753.75;;;13.12;100.00
63607;BME280;51327;52.466;-1.938;2022-09-09T06:58:52;98759.41;;;13.19;100.00
63607;BME280;51327;52.466;-1.938;2022-09-09T07:01:18;98766.06;;;13.24;100.00
63607;BME280;51327;52.466;-1.938;2022-09-09T07:03:45;98768.75;;;13.34;100.00
63607;BME280;51327;52.466;-1.938;2022-09-09T07:06:17;98773.38;;;13.42;100.00
63607;BME280;51327;52.466;-1.938;2022-09-09T07:08:49;98766.47;;;13.49;100.00
63607;BME280;51327;52.466;-1.938;2022-09-09T07:11:18;98770.00;;;13.59;100.00
63607;BME280;51327;52.466;-1.938;2022-09-09T07:13:43;98757.25;;;13.71;100.00
63607;BME280;51327;52.466;-1.938;2022-09-09T07:16:10;98769.97;;;13.78;100.00
63607;BME280;51327;52.466;-1.938;2022-09-09T07:18:38;98770.78;;;13.89;100.00
63607;BME280;51327;52.466;-1.938;2022-09-09T07:21:04;98758.19;;;13.99;100.00
63607;BME280;51327;52.466;-1.938;2022-09-09T07:23:31;98769.41;;;14.12;100.00
63607;BME280;51327;52.466;-1.938;2022-09-09T07:26:01;98771.25;;;14.22;100.00
63607;BME280;51327;52.466;-1.938;2022-09-09T07:28:26;98776.31;;;14.25;100.00
63607;BME280;51327;52.466;-1.938;2022-09-09T07:30:58;98775.03;;;14.29;100.00
63607;BME280;51327;52.466;-1.938;2022-09-09T07:33:25;98784.63;;;14.31;100.00
63607;BME280;51327;52.466;-1.938;2022-09-09T07:35:51;98787.28;;;14.31;100.00
63607;BME280;51327;52.466;-1.938;2022-09-09T07:38:17;98788.41;;;14.38;100.00
63607;BME280;51327;52.466;-1.938;2022-09-09T07:40:46;98785.50;;;14.50;100.00
63607;BME280;51327;52.466;-1.938;2022-09-09T07:43:12;98786.31;;;14.60;100.00
63607;BME280;51327;52.466;-1.938;2022-09-09T07:45:37;98791.81;;;14.68;100.00
63607;BME280;51327;52.466;-1.938;2022-09-09T07:48:05;98792.44;;;14.80;100.00
63607;BME280;51327;52.466;-1.938;2022-09-09T07:50:33;98802.44;;;14.88;100.00
63607;BME280;51327;52.466;-1.938;2022-09-09T07:53:02;98801.44;;;14.89;100.00
63607;BME280;51327;52.466;-1.938;2022-09-09T07:55:32;98799.59;;;14.89;100.00
63607;BME280;51327;52.466;-1.938;2022-09-09T07:58:00;98800.97;;;14.93;100.00
63607;BME280;51327;52.466;-1.938;2022-09-09T08:00:25;98805.91;;;14.98;100.00
63607;BME280;51327;52.466;-1.938;2022-09-09T08:02:52;98802.53;;;14.96;100.00
63607;BME280;51327;52.466;-1.938;2022-09-09T08:05:21;98805.53;;;14.93;100.00
63607;BME280;51327;52.466;-1.938;2022-09-09T08:07:49;98800.84;;;14.95;100.00
63607;BME280;51327;52.466;-1.938;2022-09-09T08:10:15;98799.84;;;14.96;100.00
63607;BME280;51327;52.466;-1.938;2022-09-09T08:12:41;98799.31;;;14.92;100.00
63607;BME280;51327;52.466;-1.938;2022-09-09T08:15:09;98805.97;;;14.88;100.00
63607;BME280;51327;52.466;-1.938;2022-09-09T08:17:36;98805.13;;;14.88;100.00
63607;BME280;51327;52.466;-1.938;2022-09-09T08:20:05;98810.34;;;14.89;100.00
63607;BME280;51327;52.466;-1.938;2022-09-09T08:22:32;98806.75;;;14.98;100.00
63607;BME280;51327;52.466;-1.938;2022-09-09T08:25:01;98807.41;;;15.10;100.00
63607;BME280;51327;52.466;-1.938;2022-09-09T08:27:29;98808.63;;;15.16;100.00
63607;BME280;51327;52.466;-1.938;2022-09-09T08:29:57;98817.91;;;15.21;100.00
63607;BME280;51327;52.466;-1.938;2022-09-09T08:32:28;98820.16;;;15.26;100.00
63607;BME280;51327;52.466;-1.938;2022-09-09T08:34:55;98817.84;;;15.31;100.00
63607;BME280;51327;52.466;-1.938;2022-09-09T08:37:23;98831.22;;;15.41;100.00
63607;BME280;51327;52.466;-1.938;2022-09-09T08:39:50;98830.28;;;15.50;100.00
63607;BME280;51327;52.466;-1.938;2022-09-09T08:44:49;98841.03;;;15.50;100.00
63607;BME280;51327;52.466;-1.938;2022-09-09T08:50:07;98844.97;;;15.56;100.00
63607;BME280;51327;52.466;-1.938;2022-09-09T08:55:26;98852.28;;;15.45;100.00
63607;BME280;51327;52.466;-1.938;2022-09-09T08:57:56;98854.72;;;15.39;100.00
63607;BME280;51327;52.466;-1.938;2022-09-09T09:00:22;98858.97;;;15.41;100.00
63607;BME280;51327;52.466;-1.938;2022-09-09T09:10:50;98875.19;;;16.03;100.00
63607;BME280;51327;52.466;-1.938;2022-09-09T09:13:37;98870.28;;;16.25;100.00
63607;BME280;51327;52.466;-1.938;2022-09-09T09:19:12;98876.66;;;16.50;100.00
63607;BME280;51327;52.466;-1.938;2022-09-09T09:21:42;98878.50;;;16.49;97.71
63607;BME280;51327;52.466;-1.938;2022-09-09T09:24:16;98884.94;;;16.57;98.04
63607;BME280;51327;52.466;-1.938;2022-09-09T09:26:45;98884.53;;;16.69;97.26
63607;BME280;51327;52.466;-1.938;2022-09-09T09:29:13;98884.53;;;16.78;96.22
63607;BME280;51327;52.466;-1.938;2022-09-09T09:31:52;98889.53;;;16.90;96.70
63607;BME280;51327;52.466;-1.938;2022-09-09T09:34:20;98893.09;;;16.99;94.07
63607;BME280;51327;52.466;-1.938;2022-09-09T09:36:57;98898.00;;;17.04;93.95
63607;BME280;51327;52.466;-1.938;2022-09-09T09:39:26;98897.19;;;17.03;93.63
63607;BME280;51327;52.466;-1.938;2022-09-09T09:41:55;98904.06;;;16.98;92.99
63607;BME280;51327;52.466;-1.938;2022-09-09T09:44:25;98906.41;;;16.93;92.72
63607;BME280;51327;52.466;-1.938;2022-09-09T09:46:51;98909.00;;;16.76;91.68
63607;BME280;51327;52.466;-1.938;2022-09-09T09:49:17;98908.13;;;16.76;92.36
63607;BME280;51327;52.466;-1.938;2022-09-09T09:51:44;98919.31;;;16.81;91.85
63607;BME280;51327;52.466;-1.938;2022-09-09T09:54:14;98914.63;;;16.83;90.81
63607;BME280;51327;52.466;-1.938;2022-09-09T09:56:45;98923.84;;;16.80;90.17
63607;BME280;51327;52.466;-1.938;2022-09-09T10:04:41;98931.09;;;16.80;93.16
63607;BME280;51327;52.466;-1.938;2022-09-09T10:07:17;98929.28;;;16.88;93.18
63607;BME280;51327;52.466;-1.938;2022-09-09T10:09:45;98937.31;;;17.06;93.57
63607;BME280;51327;52.466;-1.938;2022-09-09T10:17:28;98934.91;;;17.38;91.04
63607;BME280;51327;52.466;-1.938;2022-09-09T10:22:32;98936.22;;;17.33;88.05
63607;BME280;51327;52.466;-1.938;2022-09-09T10:35:30;98938.28;;;17.48;89.09
63607;BME280;51327;52.466;-1.938;2022-09-09T10:48:38;98940.59;;;17.93;87.94
63607;BME280;51327;52.466;-1.938;2022-09-09T10:51:17;98948.03;;;18.00;87.42
63607;BME280;51327;52.466;-1.938;2022-09-09T10:53:53;98952.94;;;18.04;86.89
63607;BME280;51327;52.466;-1.938;2022-09-09T10:56:22;98951.06;;;18.05;86.75
63607;BME280;51327;52.466;-1.938;2022-09-09T11:01:22;98950.41;;;18.19;86.86
63607;BME280;51327;52.466;-1.938;2022-09-09T11:04:01;98956.63;;;18.28;87.08
63607;BME280;51327;52.466;-1.938;2022-09-09T11:06:40;98949.19;;;18.30;85.68
63607;BME280;51327;52.466;-1.938;2022-09-09T11:09:14;98954.28;;;18.33;84.84
63607;BME280;51327;52.466;-1.938;2022-09-09T11:11:52;98953.59;;;18.39;84.84
63607;BME280;51327;52.466;-1.938;2022-09-09T11:16:59;98962.56;;;18.40;83.68
63607;BME280;51327;52.466;-1.938;2022-09-09T11:19:33;98958.50;;;18.35;83.00
63607;BME280;51327;52.466;-1.938;2022-09-09T11:22:02;98968.63;;;18.33;82.55
63607;BME280;51327;52.466;-1.938;2022-09-09T11:42:23;98973.03;;;19.23;80.56
63607;BME280;51327;52.466;-1.938;2022-09-09T11:44:49;98969.47;;;19.31;80.39
63607;BME280;51327;52.466;-1.938;2022-09-09T11:47:19;98956.53;;;19.41;79.53
63607;BME280;51327;52.466;-1.938;2022-09-09T11:49:48;98957.31;;;19.58;79.39
63607;BME280;51327;52.466;-1.938;2022-09-09T11:52:23;98961.16;;;19.64;78.59
63607;BME280;51327;52.466;-1.938;2022-09-09T11:54:54;98968.47;;;19.55;78.22
63607;BME280;51327;52.466;-1.938;2022-09-09T11:59:51;98970.09;;;19.41;77.81
63607;BME280;51327;52.466;-1.938;2022-09-09T12:02:29;98973.63;;;19.41;78.68
63607;BME280;51327;52.466;-1.938;2022-09-09T12:05:10;98979.03;;;19.41;77.48
63607;BME280;51327;52.466;-1.938;2022-09-09T12:10:23;98969.28;;;19.72;78.07
63607;BME280;51327;52.466;-1.938;2022-09-09T12:12:51;98969.97;;;19.97;77.62
63607;BME280;51327;52.466;-1.938;2022-09-09T12:17:51;98979.38;;;19.78;76.14
63607;BME280;51327;52.466;-1.938;2022-09-09T12:20:34;98989.16;;;19.56;76.11
63607;BME280;51327;52.466;-1.938;2022-09-09T12:23:20;98982.63;;;19.34;76.86
63607;BME280;51327;52.466;-1.938;2022-09-09T12:30:54;98983.97;;;18.90;78.12
63607;BME280;51327;52.466;-1.938;2022-09-09T12:33:23;98993.75;;;18.91;78.40
63607;BME280;51327;52.466;-1.938;2022-09-09T12:35:51;99001.03;;;18.91;79.48
63607;BME280;51327;52.466;-1.938;2022-09-09T12:38:30;98996.81;;;18.80;78.43
63607;BME280;51327;52.466;-1.938;2022-09-09T12:40:59;98996.50;;;18.67;79.22
63607;BME280;51327;52.466;-1.938;2022-09-09T12:43:26;99005.97;;;18.54;79.37
63607;BME280;51327;52.466;-1.938;2022-09-09T12:45:56;99004.63;;;18.42;78.74
63607;BME280;51327;52.466;-1.938;2022-09-09T12:48:37;99005.28;;;18.36;79.46
63607;BME280;51327;52.466;-1.938;2022-09-09T12:51:05;99003.13;;;18.40;79.98
63607;BME280;51327;52.466;-1.938;2022-09-09T12:53:35;98991.44;;;18.47;79.37
63607;BME280;51327;52.466;-1.938;2022-09-09T12:56:02;98995.47;;;18.60;79.59
63607;BME280;51327;52.466;-1.938;2022-09-09T12:58:28;98993.09;;;18.73;79.24
63607;BME280;51327;52.466;-1.938;2022-09-09T13:01:00;98985.47;;;18.93;79.09
63607;BME280;51327;52.466;-1.938;2022-09-09T13:03:28;98978.81;;;19.12;78.65
63607;BME280;51327;52.466;-1.938;2022-09-09T13:06:10;98986.53;;;19.39;78.12
63607;BME280;51327;52.466;-1.938;2022-09-09T13:08:39;98978.94;;;19.66;76.84
63607;BME280;51327;52.466;-1.938;2022-09-09T13:11:08;98986.34;;;19.80;75.92
63607;BME280;51327;52.466;-1.938;2022-09-09T13:13:38;98980.31;;;19.93;75.63
63607;BME280;51327;52.466;-1.938;2022-09-09T13:16:05;98991.28;;;20.00;74.66
63607;BME280;51327;52.466;-1.938;2022-09-09T13:18:36;98990.06;;;20.02;73.58
63607;BME280;51327;52.466;-1.938;2022-09-09T13:21:05;98989.91;;;20.04;73.28
63607;BME280;51327;52.466;-1.938;2022-09-09T13:23:34;98993.66;;;20.03;72.95
63607;BME280;51327;52.466;-1.938;2022-09-09T13:26:06;98988.28;;;19.95;72.34
63607;BME280;51327;52.466;-1.938;2022-09-09T13:28:44;99000.78;;;19.96;72.79
63607;BME280;51327;52.466;-1.938;2022-09-09T13:31:23;98996.22;;;19.96;72.60
63607;BME280;51327;52.466;-1.938;2022-09-09T13:33:54;98997.25;;;19.95;72.04
63607;BME280;51327;52.466;-1.938;2022-09-09T13:36:29;98998.63;;;19.91;71.02
63607;BME280;51327;52.466;-1.938;2022-09-09T13:38:59;98996.03;;;19.98;69.73
63607;BME280;51327;52.466;-1.938;2022-09-09T13:41:31;98998.41;;;20.01;70.02
63607;BME280;51327;52.466;-1.938;2022-09-09T13:43:59;99003.28;;;20.06;69.46
63607;BME280;51327;52.466;-1.938;2022-09-09T13:48:59;99003.09;;;20.07;69.31
63607;BME280;51327;52.466;-1.938;2022-09-09T13:51:34;98996.69;;;20.00;69.71
63607;BME280;51327;52.466;-1.938;2022-09-09T13:54:04;99012.13;;;19.99;69.54
63607;BME280;51327;52.466;-1.938;2022-09-09T13:56:33;99013.78;;;20.00;69.84
63607;BME280;51327;52.466;-1.938;2022-09-09T13:59:03;99012.50;;;19.96;68.77
63607;BME280;51327;52.466;-1.938;2022-09-09T14:01:29;99011.28;;;19.99;69.33
63607;BME280;51327;52.466;-1.938;2022-09-09T14:03:55;99014.00;;;19.99;68.73
63607;BME280;51327;52.466;-1.938;2022-09-09T14:06:22;99013.63;;;20.02;69.25
63607;BME280;51327;52.466;-1.938;2022-09-09T14:08:51;99017.38;;;20.01;69.26
63607;BME280;51327;52.466;-1.938;2022-09-09T14:11:17;99009.91;;;20.03;68.71
63607;BME280;51327;52.466;-1.938;2022-09-09T14:13:45;99008.38;;;20.00;66.94
63607;BME280;51327;52.466;-1.938;2022-09-09T14:16:12;99020.78;;;19.95;67.84
63607;BME280;51327;52.466;-1.938;2022-09-09T14:18:40;99013.78;;;20.00;68.87
63607;BME280;51327;52.466;-1.938;2022-09-09T14:21:08;99021.47;;;19.97;68.60
63607;BME280;51327;52.466;-1.938;2022-09-09T14:23:36;99027.56;;;19.99;68.88
63607;BME280;51327;52.466;-1.938;2022-09-09T14:26:04;99017.59;;;19.91;68.29
63607;BME280;51327;52.466;-1.938;2022-09-09T14:28:29;99017.66;;;19.83;67.74
63607;BME280;51327;52.466;-1.938;2022-09-09T14:30:58;99015.94;;;19.82;68.59
63607;BME280;51327;52.466;-1.938;2022-09-09T14:33:26;99014.56;;;19.86;67.92
63607;BME280;51327;52.466;-1.938;2022-09-09T14:35:57;99013.06;;;19.84;67.53
63607;BME280;51327;52.466;-1.938;2022-09-09T14:38:25;99021.81;;;19.94;67.97
63607;BME280;51327;52.466;-1.938;2022-09-09T14:40:52;99025.13;;;20.04;67.45
63607;BME280;51327;52.466;-1.938;2022-09-09T14:43:18;99023.56;;;20.10;66.93
63607;BME280;51327;52.466;-1.938;2022-09-09T14:45:43;99022.38;;;20.12;67.70
63607;BME280;51327;52.466;-1.938;2022-09-09T14:48:11;99019.00;;;20.10;67.05
63607;BME280;51327;52.466;-1.938;2022-09-09T14:50:38;99024.56;;;20.17;67.39
63607;BME280;51327;52.466;-1.938;2022-09-09T14:53:07;99027.94;;;20.19;65.19
63607;BME280;51327;52.466;-1.938;2022-09-09T14:55:36;99030.97;;;20.16;65.77
63607;BME280;51327;52.466;-1.938;2022-09-09T14:58:02;99030.31;;;20.14;66.47
63607;BME280;51327;52.466;-1.938;2022-09-09T15:00:27;99033.78;;;20.08;66.67
63607;BME280;51327;52.466;-1.938;2022-09-09T15:02:55;99034.19;;;19.96;66.48
63607;BME280;51327;52.466;-1.938;2022-09-09T15:05:21;99042.91;;;19.75;66.80
63607;BME280;51327;52.466;-1.938;2022-09-09T15:07:47;99081.59;;;19.45;68.34